sensor_id;sensor_type;location;lat;lon;timestamp;temperature;humidity
7077;DHT22;3579;48.956;9.154;2022-09-29T00:01:32;19.80;54.00
7077;DHT22;3579;48.956;9.154;2022-09-29T00:03:58;19.80;54.00
7077;DHT22;3579;48.956;9.154;2022-09-29T00:06:25;19.80;54.10
7077;DHT22;3579;48.956;9.154;2022-09-29T00:08:51;19.70;54.00
7077;DHT22;3579;48.956;9.154;2022-09-29T00:11:18;19.70;54.00
7077;DHT22;3579;48.956;9.154;2022-09-29T00:13:45;19.80;54.00
7077;DHT22;3579;48.956;9.154;2022-09-29T00:16:12;19.70;54.00
7077;DHT22;3579;48.956;9.154;2022-09-29T00:18:38;19.70;54.00
7077;DHT22;3579;48.956;9.154;2022-09-29T00:21:09;19.70;54.60
7077;DHT22;3579;48.956;9.154;2022-09-29T00:23:36;19.70;54.00
7077;DHT22;3579;48.956;9.154;2022-09-29T00:26:11;19.70;54.00
7077;DHT22;3579;48.956;9.154;2022-09-29T00:28:39;19.70;54.00
7077;DHT22;3579;48.956;9.154;2022-09-29T00:31:07;19.70;54.00
7077;DHT22;3579;48.956;9.154;2022-09-29T00:33:35;19.70;53.90
7077;DHT22;3579;48.956;9.154;2022-09-29T00:36:05;19.70;54.00
7077;DHT22;3579;48.956;9.154;2022-09-29T00:38:33;19.70;54.00
7077;DHT22;3579;48.956;9.154;2022-09-29T00:40:59;19.70;54.00
7077;DHT22;3579;48.956;9.154;2022-09-29T00:43:49;19.70;54.00
7077;DHT22;3579;48.956;9.154;2022-09-29T00:46:45;19.70;54.00
7077;DHT22;3579;48.956;9.154;2022-09-29T00:52:06;19.70;54.00
7077;DHT22;3579;48.956;9.154;2022-09-29T00:54:59;19.70;54.00
7077;DHT22;3579;48.956;9.154;2022-09-29T00:57:38;19.70;54.00
7077;DHT22;3579;48.956;9.154;2022-09-29T01:00:11;19.60;53.90
7077;DHT22;3579;48.956;9.154;2022-09-29T01:02:49;19.60;53.90
7077;DHT22;3579;48.956;9.154;2022-09-29T01:05:23;19.60;53.90
7077;DHT22;3579;48.956;9.154;2022-09-29T01:07:51;19.60;53.90
7077;DHT22;3579;48.956;9.154;2022-09-29T01:10:18;19.60;54.40
7077;DHT22;3579;48.956;9.154;2022-09-29T01:12:46;19.60;53.90
7077;DHT22;3579;48.956;9.154;2022-09-29T01:15:15;19.60;53.90
7077;DHT22;3579;48.956;9.154;2022-09-29T01:17:42;19.60;53.90
7077;DHT22;3579;48.956;9.154;2022-09-29T01:23:08;19.50;54.00
7077;DHT22;3579;48.956;9.154;2022-09-29T01:26:07;19.50;53.90
7077;DHT22;3579;48.956;9.154;2022-09-29T01:42:25;19.50;53.90
7077;DHT22;3579;48.956;9.154;2022-09-29T01:44:58;19.50;53.90
7077;DHT22;3579;48.956;9.154;2022-09-29T01:47:34;19.50;54.00
7077;DHT22;3579;48.956;9.154;2022-09-29T01:50:06;19.50;54.00
7077;DHT22;3579;48.956;9.154;2022-09-29T01:52:40;19.50;53.90
7077;DHT22;3579;48.956;9.154;2022-09-29T01:55:15;19.50;53.90
7077;DHT22;3579;48.956;9.154;2022-09-29T02:00:15;19.50;54.00
7077;DHT22;3579;48.956;9.154;2022-09-29T02:03:04;19.40;53.90
7077;DHT22;3579;48.956;9.154;2022-09-29T02:08:08;19.40;53.90
7077;DHT22;3579;48.956;9.154;2022-09-29T02:10:40;19.50;53.90
7077;DHT22;3579;48.956;9.154;2022-09-29T02:13:09;19.50;53.90
7077;DHT22;3579;48.956;9.154;2022-09-29T02:15:38;19.40;53.90
7077;DHT22;3579;48.956;9.154;2022-09-29T02:18:28;19.40;53.90
7077;DHT22;3579;48.956;9.154;2022-09-29T02:20:55;19.40;53.90
7077;DHT22;3579;48.956;9.154;2022-09-29T02:23:21;19.40;53.90
7077;DHT22;3579;48.956;9.154;2022-09-29T02:25:51;19.40;54.00
7077;DHT22;3579;48.956;9.154;2022-09-29T02:28:19;19.40;53.90
7077;DHT22;3579;48.956;9.154;2022-09-29T02:30:48;19.40;53.90
7077;DHT22;3579;48.956;9.154;2022-09-29T02:33:22;19.40;53.90
7077;DHT22;3579;48.956;9.154;2022-09-29T02:38:55;19.40;54.00
7077;DHT22;3579;48.956;9.154;2022-09-29T02:47:23;19.40;53.90
7077;DHT22;3579;48.956;9.154;2022-09-29T02:56:00;19.40;53.90
7077;DHT22;3579;48.956;9.154;2022-09-29T02:58:37;19.40;53.90
7077;DHT22;3579;48.956;9.154;2022-09-29T03:01:05;19.30;53.80
7077;DHT22;3579;48.956;9.154;2022-09-29T03:03:32;19.30;53.80
7077;DHT22;3579;48.956;9.154;2022-09-29T03:05:58;19.30;53.80
7077;DHT22;3579;48.956;9.154;2022-09-29T03:08:24;19.30;53.90
7077;DHT22;3579;48.956;9.154;2022-09-29T03:10:51;19.30;53.90
7077;DHT22;3579;48.956;9.154;2022-09-29T03:13:17;19.30;53.90
7077;DHT22;3579;48.956;9.154;2022-09-29T03:15:43;19.30;53.80
7077;DHT22;3579;48.956;9.154;2022-09-29T03:18:10;19.30;53.90
7077;DHT22;3579;48.956;9.154;2022-09-29T03:20:36;19.30;53.80
7077;DHT22;3579;48.956;9.154;2022-09-29T03:23:02;19.30;53.80
7077;DHT22;3579;48.956;9.154;2022-09-29T03:25:28;19.30;53.90
7077;DHT22;3579;48.956;9.154;2022-09-29T03:27:54;19.30;53.90
7077;DHT22;3579;48.956;9.154;2022-09-29T03:30:20;19.30;53.90
7077;DHT22;3579;48.956;9.154;2022-09-29T03:32:48;19.30;53.90
7077;DHT22;3579;48.956;9.154;2022-09-29T03:35:14;19.30;53.90
7077;DHT22;3579;48.956;9.154;2022-09-29T03:37:40;19.30;53.90
7077;DHT22;3579;48.956;9.154;2022-09-29T03:40:07;20.90;55.20
7077;DHT22;3579;48.956;9.154;2022-09-29T03:42:33;19.30;53.90
7077;DHT22;3579;48.956;9.154;2022-09-29T03:44:59;19.30;53.90
7077;DHT22;3579;48.956;9.154;2022-09-29T03:47:25;19.30;53.90
7077;DHT22;3579;48.956;9.154;2022-09-29T03:49:51;19.30;53.90
7077;DHT22;3579;48.956;9.154;2022-09-29T03:52:17;19.30;53.90
7077;DHT22;3579;48.956;9.154;2022-09-29T03:54:43;19.30;54.00
7077;DHT22;3579;48.956;9.154;2022-09-29T03:57:09;19.30;54.00
7077;DHT22;3579;48.956;9.154;2022-09-29T03:59:35;19.30;54.00
7077;DHT22;3579;48.956;9.154;2022-09-29T04:02:01;19.30;53.90
7077;DHT22;3579;48.956;9.154;2022-09-29T04:04:27;19.30;53.90
7077;DHT22;3579;48.956;9.154;2022-09-29T04:06:54;19.30;53.90
7077;DHT22;3579;48.956;9.154;2022-09-29T04:09:20;19.30;53.90
7077;DHT22;3579;48.956;9.154;2022-09-29T04:11:46;19.30;53.90
7077;DHT22;3579;48.956;9.154;2022-09-29T04:14:12;19.30;53.90
7077;DHT22;3579;48.956;9.154;2022-09-29T04:16:38;19.30;53.90
7077;DHT22;3579;48.956;9.154;2022-09-29T04:19:04;19.30;53.90
7077;DHT22;3579;48.956;9.154;2022-09-29T04:21:30;19.30;53.80
7077;DHT22;3579;48.956;9.154;2022-09-29T04:23:56;19.30;53.80
7077;DHT22;3579;48.956;9.154;2022-09-29T04:26:22;19.30;53.90
7077;DHT22;3579;48.956;9.154;2022-09-29T04:28:48;19.30;53.90
7077;DHT22;3579;48.956;9.154;2022-09-29T04:31:14;19.30;53.90
7077;DHT22;3579;48.956;9.154;2022-09-29T04:33:41;19.30;53.90
7077;DHT22;3579;48.956;9.154;2022-09-29T04:36:07;19.30;53.90
7077;DHT22;3579;48.956;9.154;2022-09-29T04:38:33;19.30;53.90
7077;DHT22;3579;48.956;9.154;2022-09-29T04:41:00;19.30;53.90
7077;DHT22;3579;48.956;9.154;2022-09-29T04:43:26;19.30;53.90
7077;DHT22;3579;48.956;9.154;2022-09-29T04:45:52;19.30;53.90
7077;DHT22;3579;48.956;9.154;2022-09-29T04:48:18;19.30;53.90
7077;DHT22;3579;48.956;9.154;2022-09-29T04:50:44;19.30;53.90
7077;DHT22;3579;48.956;9.154;2022-09-29T04:53:10;19.30;53.90
7077;DHT22;3579;48.956;9.154;2022-09-29T04:55:37;19.20;53.90
7077;DHT22;3579;48.956;9.154;2022-09-29T04:58:03;19.20;53.90
7077;DHT22;3579;48.956;9.154;2022-09-29T05:00:29;19.20;53.80
7077;DHT22;3579;48.956;9.154;2022-09-29T05:02:57;19.20;53.80
7077;DHT22;3579;48.956;9.154;2022-09-29T05:05:25;19.20;53.90
7077;DHT22;3579;48.956;9.154;2022-09-29T05:07:51;19.20;53.90
7077;DHT22;3579;48.956;9.154;2022-09-29T05:10:17;19.20;53.90
7077;DHT22;3579;48.956;9.154;2022-09-29T05:12:48;19.20;53.90
7077;DHT22;3579;48.956;9.154;2022-09-29T05:15:18;19.20;53.90
7077;DHT22;3579;48.956;9.154;2022-09-29T05:17:48;19.20;53.80
7077;DHT22;3579;48.956;9.154;2022-09-29T05:20:14;19.20;53.90
7077;DHT22;3579;48.956;9.154;2022-09-29T05:22:41;19.20;53.90
7077;DHT22;3579;48.956;9.154;2022-09-29T05:25:08;19.20;53.90
7077;DHT22;3579;48.956;9.154;2022-09-29T05:27:36;19.20;53.80
7077;DHT22;3579;48.956;9.154;2022-09-29T05:30:03;19.20;53.80
7077;DHT22;3579;48.956;9.154;2022-09-29T05:32:29;19.20;53.80
7077;DHT22;3579;48.956;9.154;2022-09-29T05:34:56;19.20;53.90
7077;DHT22;3579;48.956;9.154;2022-09-29T05:37:23;19.20;53.80
7077;DHT22;3579;48.956;9.154;2022-09-29T05:39:49;19.20;53.80
7077;DHT22;3579;48.956;9.154;2022-09-29T05:42:15;19.20;53.80
7077;DHT22;3579;48.956;9.154;2022-09-29T05:44:41;19.20;53.90
7077;DHT22;3579;48.956;9.154;2022-09-29T05:47:07;19.20;53.80
7077;DHT22;3579;48.956;9.154;2022-09-29T05:49:34;19.20;53.70
7077;DHT22;3579;48.956;9.154;2022-09-29T05:52:01;19.20;53.70
7077;DHT22;3579;48.956;9.154;2022-09-29T05:54:28;19.20;53.70
7077;DHT22;3579;48.956;9.154;2022-09-29T05:56:54;19.20;53.70
7077;DHT22;3579;48.956;9.154;2022-09-29T05:59:21;19.20;53.70
7077;DHT22;3579;48.956;9.154;2022-09-29T06:01:47;19.20;53.70
7077;DHT22;3579;48.956;9.154;2022-09-29T06:04:14;19.20;53.80
7077;DHT22;3579;48.956;9.154;2022-09-29T06:06:42;19.20;53.70
7077;DHT22;3579;48.956;9.154;2022-09-29T06:09:08;19.20;53.70
7077;DHT22;3579;48.956;9.154;2022-09-29T06:11:34;19.20;53.70
7077;DHT22;3579;48.956;9.154;2022-09-29T06:14:01;19.30;53.70
7077;DHT22;3579;48.956;9.154;2022-09-29T06:16:28;19.30;53.70
7077;DHT22;3579;48.956;9.154;2022-09-29T06:18:57;19.30;53.70
7077;DHT22;3579;48.956;9.154;2022-09-29T06:21:24;19.30;53.70
7077;DHT22;3579;48.956;9.154;2022-09-29T06:23:54;19.30;53.60
7077;DHT22;3579;48.956;9.154;2022-09-29T06:26:21;19.30;53.60
7077;DHT22;3579;48.956;9.154;2022-09-29T06:28:48;19.30;53.60
7077;DHT22;3579;48.956;9.154;2022-09-29T06:31:17;19.30;53.60
7077;DHT22;3579;48.956;9.154;2022-09-29T06:33:44;19.30;53.60
7077;DHT22;3579;48.956;9.154;2022-09-29T06:39:19;19.30;53.50
7077;DHT22;3579;48.956;9.154;2022-09-29T06:41:46;19.40;53.50
7077;DHT22;3579;48.956;9.154;2022-09-29T06:44:21;19.40;54.20
7077;DHT22;3579;48.956;9.154;2022-09-29T06:46:49;19.50;54.60
7077;DHT22;3579;48.956;9.154;2022-09-29T06:49:17;19.60;54.40
7077;DHT22;3579;48.956;9.154;2022-09-29T06:51:43;19.70;54.10
7077;DHT22;3579;48.956;9.154;2022-09-29T06:54:11;19.80;54.00
7077;DHT22;3579;48.956;9.154;2022-09-29T06:56:37;20.00;53.80
7077;DHT22;3579;48.956;9.154;2022-09-29T06:59:03;20.10;54.30
7077;DHT22;3579;48.956;9.154;2022-09-29T07:01:29;20.20;53.70
7077;DHT22;3579;48.956;9.154;2022-09-29T07:03:55;20.20;53.40
7077;DHT22;3579;48.956;9.154;2022-09-29T07:06:22;20.20;53.30
7077;DHT22;3579;48.956;9.154;2022-09-29T07:08:53;20.30;53.30
7077;DHT22;3579;48.956;9.154;2022-09-29T07:11:19;20.30;53.30
7077;DHT22;3579;48.956;9.154;2022-09-29T07:13:45;20.30;53.30
7077;DHT22;3579;48.956;9.154;2022-09-29T07:16:12;20.30;53.20
7077;DHT22;3579;48.956;9.154;2022-09-29T07:18:41;20.40;53.30
7077;DHT22;3579;48.956;9.154;2022-09-29T07:21:10;20.40;53.30
7077;DHT22;3579;48.956;9.154;2022-09-29T07:23:37;20.40;53.30
7077;DHT22;3579;48.956;9.154;2022-09-29T07:26:04;20.50;53.30
7077;DHT22;3579;48.956;9.154;2022-09-29T07:28:31;20.50;53.30
7077;DHT22;3579;48.956;9.154;2022-09-29T07:31:02;20.50;53.30
7077;DHT22;3579;48.956;9.154;2022-09-29T07:33:30;20.50;53.30
7077;DHT22;3579;48.956;9.154;2022-09-29T07:35:56;20.50;53.30
7077;DHT22;3579;48.956;9.154;2022-09-29T07:38:26;20.60;53.30
7077;DHT22;3579;48.956;9.154;2022-09-29T07:40:53;20.60;53.20
7077;DHT22;3579;48.956;9.154;2022-09-29T07:43:19;20.60;53.10
7077;DHT22;3579;48.956;9.154;2022-09-29T07:45:50;20.70;53.70
7077;DHT22;3579;48.956;9.154;2022-09-29T07:48:18;20.60;52.90
7077;DHT22;3579;48.956;9.154;2022-09-29T07:50:45;20.90;53.00
7077;DHT22;3579;48.956;9.154;2022-09-29T07:53:13;21.00;52.90
7077;DHT22;3579;48.956;9.154;2022-09-29T07:55:40;21.00;52.80
7077;DHT22;3579;48.956;9.154;2022-09-29T07:58:07;21.00;52.60
7077;DHT22;3579;48.956;9.154;2022-09-29T08:00:34;20.90;52.40
7077;DHT22;3579;48.956;9.154;2022-09-29T08:03:04;20.80;52.50
7077;DHT22;3579;48.956;9.154;2022-09-29T08:05:33;20.80;52.60
7077;DHT22;3579;48.956;9.154;2022-09-29T08:08:04;20.80;52.70
7077;DHT22;3579;48.956;9.154;2022-09-29T08:10:31;20.90;52.70
7077;DHT22;3579;48.956;9.154;2022-09-29T08:12:58;20.90;52.50
7077;DHT22;3579;48.956;9.154;2022-09-29T08:15:25;21.00;52.70
7077;DHT22;3579;48.956;9.154;2022-09-29T08:17:52;20.90;52.70
7077;DHT22;3579;48.956;9.154;2022-09-29T08:20:20;21.00;52.80
7077;DHT22;3579;48.956;9.154;2022-09-29T08:22:47;21.00;52.80
7077;DHT22;3579;48.956;9.154;2022-09-29T08:25:15;21.00;52.80
7077;DHT22;3579;48.956;9.154;2022-09-29T08:27:42;21.00;52.80
7077;DHT22;3579;48.956;9.154;2022-09-29T08:30:10;21.10;52.90
7077;DHT22;3579;48.956;9.154;2022-09-29T08:32:37;21.00;52.80
7077;DHT22;3579;48.956;9.154;2022-09-29T08:35:04;21.10;52.90
7077;DHT22;3579;48.956;9.154;2022-09-29T08:37:31;21.10;52.90
7077;DHT22;3579;48.956;9.154;2022-09-29T08:39:57;21.10;52.80
7077;DHT22;3579;48.956;9.154;2022-09-29T08:45:04;21.20;52.80
7077;DHT22;3579;48.956;9.154;2022-09-29T08:47:38;21.20;52.80
7077;DHT22;3579;48.956;9.154;2022-09-29T08:52:41;21.20;52.90
7077;DHT22;3579;48.956;9.154;2022-09-29T08:55:24;21.20;52.90
7077;DHT22;3579;48.956;9.154;2022-09-29T08:58:01;21.30;53.00
7077;DHT22;3579;48.956;9.154;2022-09-29T09:00:36;21.20;52.90
7077;DHT22;3579;48.956;9.154;2022-09-29T09:11:20;21.30;53.10
7077;DHT22;3579;48.956;9.154;2022-09-29T09:14:18;21.30;53.20
7077;DHT22;3579;48.956;9.154;2022-09-29T09:27:55;21.30;53.30
7077;DHT22;3579;48.956;9.154;2022-09-29T09:30:28;21.30;53.40
7077;DHT22;3579;48.956;9.154;2022-09-29T09:33:00;21.30;53.40
7077;DHT22;3579;48.956;9.154;2022-09-29T09:35:51;21.20;53.40
7077;DHT22;3579;48.956;9.154;2022-09-29T09:38:48;21.30;53.60
7077;DHT22;3579;48.956;9.154;2022-09-29T09:41:18;21.20;53.60
7077;DHT22;3579;48.956;9.154;2022-09-29T09:43:50;21.20;53.60
7077;DHT22;3579;48.956;9.154;2022-09-29T09:54:34;21.30;53.60
7077;DHT22;3579;48.956;9.154;2022-09-29T10:02:33;21.30;53.80
7077;DHT22;3579;48.956;9.154;2022-09-29T10:05:00;21.30;53.70
7077;DHT22;3579;48.956;9.154;2022-09-29T10:07:28;21.30;53.70
7077;DHT22;3579;48.956;9.154;2022-09-29T10:09:56;21.30;53.90
7077;DHT22;3579;48.956;9.154;2022-09-29T10:12:26;21.30;53.90
7077;DHT22;3579;48.956;9.154;2022-09-29T10:14:58;21.30;53.90
7077;DHT22;3579;48.956;9.154;2022-09-29T10:17:31;21.30;53.90
7077;DHT22;3579;48.956;9.154;2022-09-29T10:20:01;21.30;53.90
7077;DHT22;3579;48.956;9.154;2022-09-29T10:22:31;21.30;54.00
7077;DHT22;3579;48.956;9.154;2022-09-29T10:25:15;21.30;54.00
7077;DHT22;3579;48.956;9.154;2022-09-29T10:27:51;21.30;53.90
7077;DHT22;3579;48.956;9.154;2022-09-29T10:30:32;21.30;53.90
7077;DHT22;3579;48.956;9.154;2022-09-29T10:33:01;21.30;53.90
7077;DHT22;3579;48.956;9.154;2022-09-29T10:35:35;21.30;53.90
7077;DHT22;3579;48.956;9.154;2022-09-29T10:38:05;21.30;53.90
7077;DHT22;3579;48.956;9.154;2022-09-29T10:40:32;21.30;53.90
7077;DHT22;3579;48.956;9.154;2022-09-29T10:43:21;21.40;53.70
7077;DHT22;3579;48.956;9.154;2022-09-29T10:45:49;21.40;53.80
7077;DHT22;3579;48.956;9.154;2022-09-29T10:48:17;21.40;53.90
7077;DHT22;3579;48.956;9.154;2022-09-29T10:53:35;21.30;54.00
7077;DHT22;3579;48.956;9.154;2022-09-29T10:56:24;21.40;54.00
7077;DHT22;3579;48.956;9.154;2022-09-29T10:58:57;21.40;54.40
7077;DHT22;3579;48.956;9.154;2022-09-29T11:01:30;21.50;53.80
7077;DHT22;3579;48.956;9.154;2022-09-29T11:04:05;21.50;53.90
7077;DHT22;3579;48.956;9.154;2022-09-29T11:06:34;21.40;54.10
7077;DHT22;3579;48.956;9.154;2022-09-29T11:17:25;21.50;54.10
7077;DHT22;3579;48.956;9.154;2022-09-29T11:19:54;21.50;53.90
7077;DHT22;3579;48.956;9.154;2022-09-29T11:22:45;21.50;53.90
7077;DHT22;3579;48.956;9.154;2022-09-29T11:52:01;21.50;54.40
7077;DHT22;3579;48.956;9.154;2022-09-29T11:58:18;21.60;54.40
7077;DHT22;3579;48.956;9.154;2022-09-29T12:00:49;21.70;54.50
7077;DHT22;3579;48.956;9.154;2022-09-29T12:06:37;21.70;54.60
7077;DHT22;3579;48.956;9.154;2022-09-29T12:12:04;21.70;54.70
7077;DHT22;3579;48.956;9.154;2022-09-29T12:17:36;21.70;54.60
7077;DHT22;3579;48.956;9.154;2022-09-29T12:22:52;21.70;54.60
7077;DHT22;3579;48.956;9.154;2022-09-29T12:25:24;21.70;54.60
7077;DHT22;3579;48.956;9.154;2022-09-29T12:27:59;21.70;54.60
7077;DHT22;3579;48.956;9.154;2022-09-29T12:30:49;21.70;54.60
7077;DHT22;3579;48.956;9.154;2022-09-29T12:39:04;21.70;54.60
7077;DHT22;3579;48.956;9.154;2022-09-29T12:41:38;21.70;54.70
7077;DHT22;3579;48.956;9.154;2022-09-29T12:47:03;21.70;54.60
7077;DHT22;3579;48.956;9.154;2022-09-29T12:55:31;21.80;55.10
7077;DHT22;3579;48.956;9.154;2022-09-29T12:58:03;21.80;55.10
7077;DHT22;3579;48.956;9.154;2022-09-29T13:00:35;21.80;55.00
7077;DHT22;3579;48.956;9.154;2022-09-29T13:03:22;21.80;54.90
7077;DHT22;3579;48.956;9.154;2022-09-29T13:06:21;21.80;54.80
7077;DHT22;3579;48.956;9.154;2022-09-29T13:09:17;21.80;54.80
7077;DHT22;3579;48.956;9.154;2022-09-29T13:20:41;21.80;55.00
7077;DHT22;3579;48.956;9.154;2022-09-29T13:26:00;21.80;54.80
7077;DHT22;3579;48.956;9.154;2022-09-29T13:28:46;21.80;54.80
7077;DHT22;3579;48.956;9.154;2022-09-29T13:31:16;21.80;54.80
7077;DHT22;3579;48.956;9.154;2022-09-29T13:33:49;21.80;54.80
7077;DHT22;3579;48.956;9.154;2022-09-29T13:36:28;21.80;54.80
7077;DHT22;3579;48.956;9.154;2022-09-29T13:38:57;21.80;54.80
7077;DHT22;3579;48.956;9.154;2022-09-29T13:51:58;21.90;54.70
7077;DHT22;3579;48.956;9.154;2022-09-29T13:57:06;22.00;54.70
7077;DHT22;3579;48.956;9.154;2022-09-29T14:00:00;22.00;54.60
7077;DHT22;3579;48.956;9.154;2022-09-29T14:02:46;22.00;54.70
7077;DHT22;3579;48.956;9.154;2022-09-29T14:08:10;22.10;54.80
7077;DHT22;3579;48.956;9.154;2022-09-29T14:10:46;22.10;54.90
7077;DHT22;3579;48.956;9.154;2022-09-29T14:13:27;22.10;54.90
7077;DHT22;3579;48.956;9.154;2022-09-29T14:16:01;22.10;55.00
7077;DHT22;3579;48.956;9.154;2022-09-29T14:18:42;22.10;55.10
7077;DHT22;3579;48.956;9.154;2022-09-29T14:21:43;22.10;55.30
7077;DHT22;3579;48.956;9.154;2022-09-29T14:23:59;22.10;55.40
7077;DHT22;3579;48.956;9.154;2022-09-29T14:29:21;22.10;55.50
7077;DHT22;3579;48.956;9.154;2022-09-29T14:31:53;22.10;55.60
7077;DHT22;3579;48.956;9.154;2022-09-29T14:34:23;22.10;55.60
7077;DHT22;3579;48.956;9.154;2022-09-29T14:36:53;22.10;55.60
7077;DHT22;3579;48.956;9.154;2022-09-29T14:39:21;22.10;52.90
7077;DHT22;3579;48.956;9.154;2022-09-29T14:41:48;22.00;51.80
7077;DHT22;3579;48.956;9.154;2022-09-29T14:44:28;21.90;52.00
7077;DHT22;3579;48.956;9.154;2022-09-29T14:47:35;21.90;52.50
7077;DHT22;3579;48.956;9.154;2022-09-29T14:58:42;21.80;52.90
7077;DHT22;3579;48.956;9.154;2022-09-29T15:01:27;21.80;52.90
7077;DHT22;3579;48.956;9.154;2022-09-29T15:06:53;21.80;53.10
7077;DHT22;3579;48.956;9.154;2022-09-29T15:09:22;21.80;53.00
7077;DHT22;3579;48.956;9.154;2022-09-29T15:11:51;21.80;53.10
7077;DHT22;3579;48.956;9.154;2022-09-29T15:14:22;21.80;53.30
7077;DHT22;3579;48.956;9.154;2022-09-29T15:17:05;21.90;53.30
7077;DHT22;3579;48.956;9.154;2022-09-29T15:19:52;21.80;53.10
7077;DHT22;3579;48.956;9.154;2022-09-29T15:22:48;21.90;53.60
7077;DHT22;3579;48.956;9.154;2022-09-29T15:30:54;21.90;53.60
7077;DHT22;3579;48.956;9.154;2022-09-29T15:33:26;21.90;53.60
7077;DHT22;3579;48.956;9.154;2022-09-29T15:35:57;21.80;53.60
7077;DHT22;3579;48.956;9.154;2022-09-29T15:40:53;21.80;53.80
7077;DHT22;3579;48.956;9.154;2022-09-29T15:43:25;21.70;53.70
7077;DHT22;3579;48.956;9.154;2022-09-29T15:46:18;21.70;53.80
7077;DHT22;3579;48.956;9.154;2022-09-29T15:51:39;21.70;53.80
7077;DHT22;3579;48.956;9.154;2022-09-29T15:54:06;21.70;53.90
7077;DHT22;3579;48.956;9.154;2022-09-29T15:56:38;21.70;53.90
7077;DHT22;3579;48.956;9.154;2022-09-29T15:59:38;21.60;53.90
7077;DHT22;3579;48.956;9.154;2022-09-29T16:04:55;21.60;53.90
7077;DHT22;3579;48.956;9.154;2022-09-29T16:07:32;21.60;53.90
7077;DHT22;3579;48.956;9.154;2022-09-29T16:10:13;21.50;53.90
7077;DHT22;3579;48.956;9.154;2022-09-29T16:12:59;21.50;54.00
7077;DHT22;3579;48.956;9.154;2022-09-29T16:15:34;21.50;54.00
7077;DHT22;3579;48.956;9.154;2022-09-29T16:18:09;21.50;54.00
7077;DHT22;3579;48.956;9.154;2022-09-29T16:20:41;21.40;54.00
7077;DHT22;3579;48.956;9.154;2022-09-29T16:23:25;21.40;54.00
7077;DHT22;3579;48.956;9.154;2022-09-29T16:28:36;21.30;54.10
7077;DHT22;3579;48.956;9.154;2022-09-29T16:31:05;21.30;54.10
7077;DHT22;3579;48.956;9.154;2022-09-29T16:33:35;21.30;54.10
7077;DHT22;3579;48.956;9.154;2022-09-29T16:36:13;21.30;54.20
7077;DHT22;3579;48.956;9.154;2022-09-29T16:38:50;21.20;54.20
7077;DHT22;3579;48.956;9.154;2022-09-29T16:41:37;21.20;54.20
7077;DHT22;3579;48.956;9.154;2022-09-29T16:49:56;21.20;54.30
7077;DHT22;3579;48.956;9.154;2022-09-29T16:52:39;21.10;54.30
7077;DHT22;3579;48.956;9.154;2022-09-29T17:00:21;21.10;54.30
7077;DHT22;3579;48.956;9.154;2022-09-29T17:02:54;21.00;54.20
7077;DHT22;3579;48.956;9.154;2022-09-29T17:05:21;21.10;54.00
7077;DHT22;3579;48.956;9.154;2022-09-29T17:07:49;21.10;54.10
7077;DHT22;3579;48.956;9.154;2022-09-29T17:10:17;21.00;54.10
7077;DHT22;3579;48.956;9.154;2022-09-29T17:12:44;20.90;54.10
7077;DHT22;3579;48.956;9.154;2022-09-29T17:15:14;20.90;54.30
7077;DHT22;3579;48.956;9.154;2022-09-29T17:17:43;20.90;54.20
7077;DHT22;3579;48.956;9.154;2022-09-29T17:20:17;20.90;54.20
7077;DHT22;3579;48.956;9.154;2022-09-29T17:22:44;20.90;54.20
7077;DHT22;3579;48.956;9.154;2022-09-29T17:25:12;20.80;54.80
7077;DHT22;3579;48.956;9.154;2022-09-29T17:27:38;20.80;54.30
7077;DHT22;3579;48.956;9.154;2022-09-29T17:30:24;20.80;54.30
7077;DHT22;3579;48.956;9.154;2022-09-29T17:32:54;20.70;54.30
7077;DHT22;3579;48.956;9.154;2022-09-29T17:35:40;20.70;54.40
7077;DHT22;3579;48.956;9.154;2022-09-29T17:38:07;20.70;54.40
7077;DHT22;3579;48.956;9.154;2022-09-29T17:43:05;20.60;54.40
7077;DHT22;3579;48.956;9.154;2022-09-29T17:45:31;20.60;54.40
7077;DHT22;3579;48.956;9.154;2022-09-29T17:48:03;20.60;54.30
7077;DHT22;3579;48.956;9.154;2022-09-29T17:50:33;20.60;54.40
7077;DHT22;3579;48.956;9.154;2022-09-29T17:53:02;20.60;54.40
7077;DHT22;3579;48.956;9.154;2022-09-29T17:55:32;20.60;54.50
7077;DHT22;3579;48.956;9.154;2022-09-29T17:57:59;20.60;54.50
7077;DHT22;3579;48.956;9.154;2022-09-29T18:00:31;20.60;54.40
7077;DHT22;3579;48.956;9.154;2022-09-29T18:02:58;20.50;54.30
7077;DHT22;3579;48.956;9.154;2022-09-29T18:05:28;20.50;54.40
7077;DHT22;3579;48.956;9.154;2022-09-29T18:07:56;20.50;54.50
7077;DHT22;3579;48.956;9.154;2022-09-29T18:10:27;20.40;54.50
7077;DHT22;3579;48.956;9.154;2022-09-29T18:12:54;20.40;54.50
7077;DHT22;3579;48.956;9.154;2022-09-29T18:15:20;20.40;54.50
7077;DHT22;3579;48.956;9.154;2022-09-29T18:17:47;20.40;54.50
7077;DHT22;3579;48.956;9.154;2022-09-29T18:20:18;20.40;54.50
7077;DHT22;3579;48.956;9.154;2022-09-29T18:22:46;20.40;54.50
7077;DHT22;3579;48.956;9.154;2022-09-29T18:25:14;20.40;54.40
7077;DHT22;3579;48.956;9.154;2022-09-29T18:27:43;20.40;54.50
7077;DHT22;3579;48.956;9.154;2022-09-29T18:30:41;20.40;54.40
7077;DHT22;3579;48.956;9.154;2022-09-29T18:33:11;20.40;54.40
7077;DHT22;3579;48.956;9.154;2022-09-29T18:35:38;20.40;54.40
7077;DHT22;3579;48.956;9.154;2022-09-29T18:38:07;20.30;54.40
7077;DHT22;3579;48.956;9.154;2022-09-29T18:40:34;20.30;54.50
7077;DHT22;3579;48.956;9.154;2022-09-29T18:43:00;20.30;54.60
7077;DHT22;3579;48.956;9.154;2022-09-29T18:45:29;20.30;54.60
7077;DHT22;3579;48.956;9.154;2022-09-29T18:48:01;20.30;54.60
7077;DHT22;3579;48.956;9.154;2022-09-29T18:50:30;20.30;54.60
7077;DHT22;3579;48.956;9.154;2022-09-29T18:52:57;20.30;54.50
7077;DHT22;3579;48.956;9.154;2022-09-29T18:55:25;20.30;54.60
7077;DHT22;3579;48.956;9.154;2022-09-29T18:57:53;20.20;54.50
7077;DHT22;3579;48.956;9.154;2022-09-29T19:00:21;20.20;54.50
7077;DHT22;3579;48.956;9.154;2022-09-29T19:02:48;20.20;54.60
7077;DHT22;3579;48.956;9.154;2022-09-29T19:05:18;20.20;54.50
7077;DHT22;3579;48.956;9.154;2022-09-29T19:07:47;20.20;54.50
7077;DHT22;3579;48.956;9.154;2022-09-29T19:10:15;20.20;54.60
7077;DHT22;3579;48.956;9.154;2022-09-29T19:12:43;20.20;54.60
7077;DHT22;3579;48.956;9.154;2022-09-29T19:15:15;20.20;54.50
7077;DHT22;3579;48.956;9.154;2022-09-29T19:17:42;20.20;54.60
7077;DHT22;3579;48.956;9.154;2022-09-29T19:20:11;20.20;54.60
7077;DHT22;3579;48.956;9.154;2022-09-29T19:22:38;20.10;54.60
7077;DHT22;3579;48.956;9.154;2022-09-29T19:25:11;20.10;54.60
7077;DHT22;3579;48.956;9.154;2022-09-29T19:27:41;20.10;54.50
7077;DHT22;3579;48.956;9.154;2022-09-29T19:30:09;20.10;54.50
7077;DHT22;3579;48.956;9.154;2022-09-29T19:32:36;20.10;54.50
7077;DHT22;3579;48.956;9.154;2022-09-29T19:35:04;20.10;54.50
7077;DHT22;3579;48.956;9.154;2022-09-29T19:37:30;20.10;54.60
7077;DHT22;3579;48.956;9.154;2022-09-29T19:39:56;20.00;54.60
7077;DHT22;3579;48.956;9.154;2022-09-29T19:42:23;20.00;54.70
7077;DHT22;3579;48.956;9.154;2022-09-29T19:44:49;20.00;54.70
7077;DHT22;3579;48.956;9.154;2022-09-29T19:47:15;20.00;54.70
7077;DHT22;3579;48.956;9.154;2022-09-29T19:49:42;20.00;54.70
7077;DHT22;3579;48.956;9.154;2022-09-29T19:52:08;20.00;54.80
7077;DHT22;3579;48.956;9.154;2022-09-29T19:54:36;20.00;54.80
7077;DHT22;3579;48.956;9.154;2022-09-29T19:57:06;20.00;54.70
7077;DHT22;3579;48.956;9.154;2022-09-29T19:59:35;20.00;54.70
7077;DHT22;3579;48.956;9.154;2022-09-29T20:02:04;20.00;54.80
7077;DHT22;3579;48.956;9.154;2022-09-29T20:04:33;20.00;54.80
7077;DHT22;3579;48.956;9.154;2022-09-29T20:07:01;19.90;54.80